createdAt,value
2018-07-02T00:00:27.881Z,0.00
2018-07-02T00:01:27.945Z,0.00
2018-07-02T00:02:28.017Z,0.00
2018-07-02T00:03:28.081Z,0.00
2018-07-02T00:04:28.141Z,0.00
2018-07-02T00:05:28.205Z,0.00
2018-07-02T00:06:28.273Z,0.00
2018-07-02T00:07:28.350Z,0.00
2018-07-02T00:08:28.409Z,0.00
2018-07-02T00:09:28.474Z,0.00
2018-07-02T00:10:28.534Z,0.00
2018-07-02T00:11:28.601Z,0.00
2018-07-02T00:12:28.673Z,0.00
2018-07-02T00:13:28.741Z,0.00
2018-07-02T00:14:28.798Z,0.00
2018-07-02T00:15:28.862Z,0.00
2018-07-02T00:16:28.930Z,0.00
2018-07-02T00:17:28.998Z,0.00
2018-07-02T00:18:29.065Z,0.00
2018-07-02T00:19:29.125Z,0.00
2018-07-02T00:20:29.190Z,0.00
2018-07-02T00:21:29.254Z,0.00
2018-07-02T00:22:29.322Z,0.00
2018-07-02T00:23:29.418Z,0.00
2018-07-02T00:24:29.454Z,0.00
2018-07-02T00:25:29.518Z,0.00
2018-07-02T00:26:29.582Z,0.00
2018-07-02T00:27:29.646Z,0.00
2018-07-02T00:28:29.722Z,0.00
2018-07-02T00:29:29.791Z,0.00
2018-07-02T00:30:29.838Z,0.00
2018-07-02T00:31:29.910Z,0.00
2018-07-02T00:32:29.974Z,0.00
2018-07-02T00:33:30.046Z,0.00
2018-07-02T00:34:30.113Z,0.00
2018-07-02T00:35:30.170Z,0.00
2018-07-02T00:36:30.234Z,0.00
2018-07-02T00:37:30.298Z,0.00
2018-07-02T00:38:30.374Z,0.00
2018-07-02T00:39:30.439Z,0.00
2018-07-02T00:40:30.499Z,0.00
2018-07-02T00:41:30.562Z,0.00
2018-07-02T00:42:30.673Z,0.00
2018-07-02T00:43:30.698Z,0.00
2018-07-02T00:44:30.763Z,0.00
2018-07-02T00:45:30.822Z,0.00
2018-07-02T00:46:30.886Z,0.00
2018-07-02T00:47:30.963Z,0.00
2018-07-02T00:48:31.026Z,0.00
2018-07-02T00:49:31.091Z,0.00
2018-07-02T00:50:31.146Z,0.00
2018-07-02T00:51:31.214Z,0.00
2018-07-02T00:52:31.283Z,0.00
2018-07-02T00:53:31.353Z,0.00
2018-07-02T00:54:31.414Z,0.00
2018-07-02T00:55:31.475Z,0.00
2018-07-02T00:56:31.540Z,0.00
2018-07-02T00:57:31.603Z,0.00
2018-07-02T00:58:31.675Z,0.00
2018-07-02T00:59:31.740Z,0.00
2018-07-02T01:00:31.799Z,0.00
2018-07-02T01:01:31.864Z,0.00
2018-07-02T01:02:31.931Z,0.00
2018-07-02T01:03:31.999Z,0.00
2018-07-02T01:04:32.067Z,0.00
2018-07-02T01:05:32.131Z,0.00
2018-07-02T01:06:32.192Z,0.00
2018-07-02T01:07:32.264Z,0.00
2018-07-02T01:08:32.319Z,0.00
2018-07-02T01:09:32.492Z,0.00
2018-07-02T01:10:32.447Z,0.00
2018-07-02T01:11:32.516Z,0.00
2018-07-02T01:12:32.580Z,0.00
2018-07-02T01:13:32.643Z,0.00
2018-07-02T01:14:32.715Z,0.00
2018-07-02T01:15:32.780Z,0.00
2018-07-02T01:16:32.840Z,0.00
2018-07-02T01:17:32.903Z,0.00
2018-07-02T01:18:32.993Z,0.00
2018-07-02T01:19:33.041Z,0.00
2018-07-02T01:20:33.108Z,0.00
2018-07-02T01:21:33.164Z,0.00
2018-07-02T01:22:33.228Z,0.00
2018-07-02T01:23:33.296Z,0.00
2018-07-02T01:24:33.616Z,0.00
2018-07-02T01:25:33.424Z,0.00
2018-07-02T01:26:33.490Z,0.00
2018-07-02T01:27:33.552Z,0.00
2018-07-02T01:28:33.621Z,0.00
2018-07-02T01:29:33.688Z,0.00
2018-07-02T01:30:33.756Z,0.00
2018-07-02T01:31:33.813Z,0.00
2018-07-02T01:32:33.876Z,0.00
2018-07-02T01:33:33.940Z,0.00
2018-07-02T01:34:34.012Z,0.00
2018-07-02T01:35:34.084Z,0.00
2018-07-02T01:36:34.136Z,0.00
2018-07-02T01:37:34.200Z,0.00
2018-07-02T01:38:34.264Z,0.00
2018-07-02T01:39:35.422Z,0.00
2018-07-02T01:40:34.399Z,0.00
2018-07-02T01:41:34.461Z,0.00
2018-07-02T01:42:34.526Z,0.00
2018-07-02T01:43:34.589Z,0.00
2018-07-02T01:44:34.661Z,0.00
2018-07-02T01:45:34.725Z,0.00
2018-07-02T01:46:34.784Z,0.00
2018-07-02T01:47:34.849Z,0.00
2018-07-02T01:48:34.914Z,0.00
2018-07-02T01:49:34.985Z,0.00
2018-07-02T01:50:35.049Z,0.00
2018-07-02T01:51:35.109Z,0.00
2018-07-02T01:52:35.173Z,0.00
2018-07-02T01:53:35.237Z,0.00
2018-07-02T01:54:35.417Z,0.00
2018-07-02T01:55:35.369Z,0.00
2018-07-02T01:56:35.433Z,0.00
2018-07-02T01:57:35.501Z,0.00
2018-07-02T01:58:35.561Z,0.00
2018-07-02T01:59:35.643Z,0.00
2018-07-02T02:00:35.700Z,0.00
2018-07-02T02:01:35.757Z,0.00
2018-07-02T02:02:35.821Z,0.00
2018-07-02T02:03:35.885Z,0.00
2018-07-02T02:04:35.957Z,0.00
2018-07-02T02:05:36.030Z,0.00
2018-07-02T02:06:36.078Z,0.00
2018-07-02T02:07:36.141Z,0.00
2018-07-02T02:08:36.210Z,0.00
2018-07-02T02:09:36.358Z,0.00
2018-07-02T02:10:36.338Z,0.00
2018-07-02T02:11:36.405Z,0.00
2018-07-02T02:12:36.466Z,0.00
2018-07-02T02:13:36.526Z,0.00
2018-07-02T02:14:36.602Z,0.00
2018-07-02T02:15:36.666Z,0.00
2018-07-02T02:16:36.726Z,0.00
2018-07-02T02:17:36.790Z,0.00
2018-07-02T02:18:36.854Z,0.00
2018-07-02T02:19:36.927Z,0.00
2018-07-02T02:20:36.993Z,0.00
2018-07-02T02:21:37.046Z,0.00
2018-07-02T02:22:37.116Z,0.00
2018-07-02T02:23:37.178Z,0.00
2018-07-02T02:24:37.264Z,0.00
2018-07-02T02:25:37.307Z,0.00
2018-07-02T02:26:37.371Z,0.00
2018-07-02T02:27:37.435Z,0.00
2018-07-02T02:28:37.499Z,0.00
2018-07-02T02:29:37.578Z,0.00
2018-07-02T02:30:37.635Z,0.00
2018-07-02T02:31:37.699Z,0.00
2018-07-02T02:32:37.755Z,0.00
2018-07-02T02:33:37.823Z,0.00
2018-07-02T02:34:37.899Z,0.00
2018-07-02T02:35:37.959Z,0.00
2018-07-02T02:36:38.015Z,0.00
2018-07-02T02:37:38.079Z,0.00
2018-07-02T02:38:38.148Z,0.00
2018-07-02T02:39:38.371Z,0.00
2018-07-02T02:40:38.276Z,4.00
2018-07-02T02:41:38.340Z,0.00
2018-07-02T02:42:38.406Z,0.00
2018-07-02T02:43:38.470Z,4.00
2018-07-02T02:44:38.540Z,4.00
2018-07-02T02:45:38.608Z,0.00
2018-07-02T02:46:38.664Z,4.00
2018-07-02T02:47:38.727Z,4.00
2018-07-02T02:48:38.796Z,4.00
2018-07-02T02:49:38.863Z,4.00
2018-07-02T02:50:38.928Z,4.00
2018-07-02T02:51:38.984Z,4.00
2018-07-02T02:52:39.048Z,8.00
2018-07-02T02:53:39.112Z,8.00
2018-07-02T02:54:39.512Z,8.00
2018-07-02T02:55:39.240Z,8.00
2018-07-02T02:56:39.310Z,8.00
2018-07-02T02:57:39.371Z,12.00
2018-07-02T02:58:39.436Z,12.00
2018-07-02T02:59:39.500Z,16.00
2018-07-02T03:00:39.716Z,16.00
2018-07-02T03:01:39.628Z,20.00
2018-07-02T03:02:39.692Z,20.00
2018-07-02T03:03:39.757Z,24.00
2018-07-02T03:04:39.820Z,24.00
2018-07-02T03:05:39.892Z,28.00
2018-07-02T03:06:39.960Z,32.00
2018-07-02T03:07:40.013Z,32.00
2018-07-02T03:08:40.081Z,36.00
2018-07-02T03:09:40.161Z,40.00
2018-07-02T03:10:40.373Z,44.00
2018-07-02T03:11:40.276Z,48.00
2018-07-02T03:12:40.340Z,56.00
2018-07-02T03:13:40.405Z,60.00
2018-07-02T03:14:40.465Z,64.00
2018-07-02T03:15:40.549Z,68.00
2018-07-02T03:16:40.601Z,76.00
2018-07-02T03:17:40.657Z,80.00
2018-07-02T03:18:40.721Z,88.00
2018-07-02T03:19:40.785Z,96.00
2018-07-02T03:20:40.858Z,100.00
2018-07-02T03:21:40.922Z,112.00
2018-07-02T03:22:40.977Z,120.00
2018-07-02T03:23:41.049Z,128.00
2018-07-02T03:24:41.109Z,136.00
2018-07-02T03:25:41.174Z,144.00
2018-07-02T03:26:41.381Z,152.00
2018-07-02T03:27:41.621Z,164.00
2018-07-02T03:28:41.366Z,172.00
2018-07-02T03:29:41.430Z,184.00
2018-07-02T03:30:41.499Z,196.00
2018-07-02T03:31:41.566Z,208.00
2018-07-02T03:32:41.630Z,216.00
2018-07-02T03:33:41.686Z,228.00
2018-07-02T03:34:41.750Z,240.00
2018-07-02T03:35:41.814Z,252.00
2018-07-02T03:36:41.891Z,264.00
2018-07-02T03:37:41.950Z,280.00
2018-07-02T03:38:42.009Z,288.00
2018-07-02T03:39:42.071Z,304.00
2018-07-02T03:40:42.134Z,316.00
2018-07-02T03:41:42.318Z,328.00
2018-07-02T03:42:42.262Z,340.00
2018-07-02T03:43:42.330Z,356.00
2018-07-02T03:44:42.394Z,368.00
2018-07-02T03:45:42.461Z,384.00
2018-07-02T03:46:42.531Z,400.00
2018-07-02T03:47:42.590Z,408.00
2018-07-02T03:48:42.650Z,424.00
2018-07-02T03:49:42.715Z,436.00
2018-07-02T03:50:42.778Z,452.00
2018-07-02T03:51:42.851Z,464.00
2018-07-02T03:52:42.917Z,480.00
2018-07-02T03:53:42.970Z,492.00
2018-07-02T03:54:43.035Z,504.00
2018-07-02T03:55:43.099Z,520.00
2018-07-02T03:56:43.323Z,532.00
2018-07-02T03:57:43.227Z,548.00
2018-07-02T03:58:43.291Z,556.00
2018-07-02T03:59:43.355Z,572.00
2018-07-02T04:00:43.419Z,584.00
2018-07-02T04:01:43.491Z,596.00
2018-07-02T04:02:43.557Z,608.00
2018-07-02T04:03:43.612Z,620.00
2018-07-02T04:04:43.684Z,632.00
2018-07-02T04:05:43.742Z,648.00
2018-07-02T04:06:43.815Z,660.00
2018-07-02T04:07:43.875Z,672.00
2018-07-02T04:08:43.935Z,684.00
2018-07-02T04:09:43.999Z,700.00
2018-07-02T04:10:44.064Z,712.00
2018-07-02T04:11:44.284Z,724.00
2018-07-02T04:12:44.192Z,732.00
2018-07-02T04:13:44.255Z,748.00
2018-07-02T04:14:44.320Z,760.00
2018-07-02T04:15:44.392Z,772.00
2018-07-02T04:16:44.456Z,784.00
2018-07-02T04:17:44.519Z,796.00
2018-07-02T04:18:44.575Z,804.00
2018-07-02T04:19:44.640Z,816.00
2018-07-02T04:20:44.709Z,828.00
2018-07-02T04:21:44.780Z,840.00
2018-07-02T04:22:44.840Z,848.00
2018-07-02T04:23:44.896Z,860.00
2018-07-02T04:24:44.965Z,876.00
2018-07-02T04:25:45.025Z,884.00
2018-07-02T04:26:45.108Z,892.00
2018-07-02T04:27:45.156Z,904.00
2018-07-02T04:28:45.220Z,916.00
2018-07-02T04:29:45.285Z,928.00
2018-07-02T04:30:45.372Z,940.00
2018-07-02T04:31:45.416Z,948.00
2018-07-02T04:32:45.485Z,960.00
2018-07-02T04:33:45.541Z,968.00
2018-07-02T04:34:45.605Z,980.00
2018-07-02T04:35:45.674Z,992.00
2018-07-02T04:36:45.745Z,1000.00
2018-07-02T04:37:45.805Z,1012.00
2018-07-02T04:38:45.864Z,1020.00
2018-07-02T04:39:45.925Z,1028.00
2018-07-02T04:40:45.997Z,1040.00
2018-07-02T04:41:46.061Z,1052.00
2018-07-02T04:42:46.125Z,1060.00
2018-07-02T04:43:46.185Z,1072.00
2018-07-02T04:44:46.249Z,1080.00
2018-07-02T04:45:46.313Z,1092.00
2018-07-02T04:46:46.550Z,1096.00
2018-07-02T04:47:46.441Z,1108.00
2018-07-02T04:48:46.506Z,1116.00
2018-07-02T04:49:46.570Z,1124.00
2018-07-02T04:50:46.656Z,1128.00
2018-07-02T04:51:46.710Z,1140.00
2018-07-02T04:52:46.769Z,1152.00
2018-07-02T04:53:46.825Z,1156.00
2018-07-02T04:54:46.894Z,1164.00
2018-07-02T04:55:46.957Z,1172.00
2018-07-02T04:56:47.032Z,1176.00
2018-07-02T04:57:47.089Z,1188.00
2018-07-02T04:58:47.154Z,1196.00
2018-07-02T04:59:47.258Z,1200.00
2018-07-02T05:00:47.278Z,1212.00
2018-07-02T05:01:47.370Z,1220.00
2018-07-02T05:02:47.410Z,1224.00
2018-07-02T05:03:47.471Z,1232.00
2018-07-02T05:04:47.550Z,1240.00
2018-07-02T05:05:47.600Z,1252.00
2018-07-02T05:06:47.674Z,1256.00
2018-07-02T05:07:47.738Z,1264.00
2018-07-02T05:08:47.791Z,1272.00
2018-07-02T05:09:47.859Z,1280.00
2018-07-02T05:10:47.929Z,1288.00
2018-07-02T05:11:48.061Z,1296.00
2018-07-02T05:12:48.055Z,1304.00
2018-07-02T05:13:48.125Z,1316.00
2018-07-02T05:14:48.183Z,1320.00
2018-07-02T05:15:48.247Z,1332.00
2018-07-02T05:16:48.311Z,1336.00
2018-07-02T05:17:48.415Z,1344.00
2018-07-02T05:18:48.439Z,1352.00
2018-07-02T05:19:48.503Z,1356.00
2018-07-02T05:20:48.571Z,1364.00
2018-07-02T05:21:48.639Z,1372.00
2018-07-02T05:22:48.703Z,1380.00
2018-07-02T05:23:48.771Z,1388.00
2018-07-02T05:24:48.827Z,1392.00
2018-07-02T05:25:48.891Z,1404.00
2018-07-02T05:26:48.955Z,1408.00
2018-07-02T05:27:49.028Z,1416.00
2018-07-02T05:28:49.095Z,1424.00
2018-07-02T05:29:49.151Z,1432.00
2018-07-02T05:30:49.219Z,1440.00
2018-07-02T05:31:49.280Z,1448.00
2018-07-02T05:32:49.351Z,1456.00
2018-07-02T05:33:49.419Z,1464.00
2018-07-02T05:34:49.475Z,1472.00
2018-07-02T05:35:49.542Z,1484.00
2018-07-02T05:36:49.606Z,1488.00
2018-07-02T05:37:49.675Z,1500.00
2018-07-02T05:38:49.799Z,1504.00
2018-07-02T05:39:49.799Z,1512.00
2018-07-02T05:40:49.864Z,1520.00
2018-07-02T05:41:49.928Z,1524.00
2018-07-02T05:42:50.000Z,1536.00
2018-07-02T05:43:50.064Z,1540.00
2018-07-02T05:44:50.125Z,1548.00
2018-07-02T05:45:50.188Z,1556.00
2018-07-02T05:46:50.251Z,1560.00
2018-07-02T05:47:50.315Z,1568.00
2018-07-02T05:48:50.593Z,1576.00
2018-07-02T05:49:50.452Z,1584.00
2018-07-02T05:50:50.513Z,1592.00
2018-07-02T05:51:50.577Z,1600.00
2018-07-02T05:52:50.647Z,1608.00
2018-07-02T05:53:50.716Z,1612.00
2018-07-02T05:54:51.070Z,1620.00
2018-07-02T05:55:50.836Z,1628.00
2018-07-02T05:56:50.901Z,1640.00
2018-07-02T05:57:51.135Z,1648.00
2018-07-02T05:58:51.040Z,1656.00
2018-07-02T05:59:51.111Z,1668.00
2018-07-02T06:00:51.161Z,1680.00
2018-07-02T06:01:51.229Z,1692.00
2018-07-02T06:02:51.293Z,1704.00
2018-07-02T06:03:51.388Z,1712.00
2018-07-02T06:04:51.429Z,1732.00
2018-07-02T06:05:51.489Z,1752.00
2018-07-02T06:06:51.552Z,1764.00
2018-07-02T06:07:51.652Z,1780.00
2018-07-02T06:08:51.689Z,1796.00
2018-07-02T06:09:51.753Z,1816.00
2018-07-02T06:10:51.813Z,1832.00
2018-07-02T06:11:51.877Z,1840.00
2018-07-02T06:12:51.945Z,1860.00
2018-07-02T06:13:52.013Z,1872.00
2018-07-02T06:14:52.081Z,1908.00
2018-07-02T06:15:52.138Z,6348.00
2018-07-02T06:16:52.205Z,28960.00
2018-07-02T06:17:52.269Z,50592.00
2018-07-02T06:18:52.341Z,62592.00
2018-07-02T06:19:52.409Z,62976.00
2018-07-02T06:20:52.469Z,63616.00
2018-07-02T06:21:52.538Z,63040.00
2018-07-02T06:22:52.609Z,62432.00
2018-07-02T06:23:52.698Z,63552.00
2018-07-02T06:24:52.779Z,65312.00
2018-07-02T06:25:52.818Z,63360.00
2018-07-02T06:26:52.890Z,62112.00
2018-07-02T06:27:52.961Z,62112.00
2018-07-02T06:28:53.042Z,62528.00
2018-07-02T06:29:53.114Z,62592.00
2018-07-02T06:30:53.183Z,62176.00
2018-07-02T06:31:53.254Z,61824.00
2018-07-02T06:32:53.330Z,62400.00
2018-07-02T06:33:53.409Z,62688.00
2018-07-02T06:34:53.486Z,62464.00
2018-07-02T06:35:53.557Z,60576.00
2018-07-02T06:36:53.634Z,60160.00
2018-07-02T06:37:53.710Z,59680.00
2018-07-02T06:38:53.795Z,57760.00
2018-07-02T06:39:53.870Z,55808.00
2018-07-02T06:40:53.942Z,57984.00
2018-07-02T06:41:54.065Z,59296.00
2018-07-02T06:42:54.098Z,58784.00
2018-07-02T06:43:54.286Z,58464.00
2018-07-02T06:44:54.274Z,59072.00
2018-07-02T06:45:54.334Z,60096.00
2018-07-02T06:46:54.414Z,59776.00
2018-07-02T06:47:54.496Z,59584.00
2018-07-02T06:48:54.583Z,59808.00
2018-07-02T06:49:54.659Z,60128.00
2018-07-02T06:50:54.735Z,59456.00
2018-07-02T06:51:54.815Z,60224.00
2018-07-02T06:52:54.894Z,59584.00
2018-07-02T06:53:54.982Z,58528.00
2018-07-02T06:54:55.063Z,59488.00
2018-07-02T06:55:55.138Z,58816.00
2018-07-02T06:56:55.221Z,58592.00
2018-07-02T06:57:55.299Z,57568.00
2018-07-02T06:58:55.395Z,57472.00
2018-07-02T06:59:55.463Z,57504.00
2018-07-02T07:00:55.543Z,57248.00
2018-07-02T07:01:55.622Z,53824.00
2018-07-02T07:02:55.703Z,53536.00
2018-07-02T07:03:55.795Z,54336.00
2018-07-02T07:04:55.876Z,55168.00
2018-07-02T07:05:55.954Z,54304.00
2018-07-02T07:06:56.031Z,54592.00
2018-07-02T07:07:56.122Z,54528.00
2018-07-02T07:08:56.198Z,53760.00
2018-07-02T07:09:56.394Z,53856.00
2018-07-02T07:10:56.359Z,54080.00
2018-07-02T07:11:56.445Z,54336.00
2018-07-02T07:12:56.529Z,54624.00
2018-07-02T07:13:56.607Z,53152.00
2018-07-02T07:14:56.696Z,52480.00
2018-07-02T07:15:56.783Z,52704.00
2018-07-02T07:16:56.856Z,53280.00
2018-07-02T07:17:56.936Z,52352.00
2018-07-02T07:18:57.019Z,51200.00
2018-07-02T07:19:57.128Z,52672.00
2018-07-02T07:20:57.184Z,51776.00
2018-07-02T07:21:57.269Z,49792.00
2018-07-02T07:22:57.352Z,50080.00
2018-07-02T07:23:57.432Z,49696.00
2018-07-02T07:24:57.524Z,49344.00
2018-07-02T07:25:57.605Z,49760.00
2018-07-02T07:26:57.685Z,48992.00
2018-07-02T07:27:57.768Z,47328.00
2018-07-02T07:28:57.848Z,46624.00
2018-07-02T07:29:57.936Z,46272.00
2018-07-02T07:30:58.047Z,45728.00
2018-07-02T07:31:58.104Z,43552.00
2018-07-02T07:32:58.180Z,45056.00
2018-07-02T07:33:58.265Z,45504.00
2018-07-02T07:34:58.349Z,43840.00
2018-07-02T07:35:58.458Z,43520.00
2018-07-02T07:36:58.517Z,43392.00
2018-07-02T07:37:58.601Z,43712.00
2018-07-02T07:38:58.685Z,42016.00
2018-07-02T07:39:58.760Z,42112.00
2018-07-02T07:40:58.854Z,40512.00
2018-07-02T07:41:58.933Z,39648.00
2018-07-02T07:42:59.009Z,41152.00
2018-07-02T07:43:59.093Z,40128.00
2018-07-02T07:44:59.178Z,38944.00
2018-07-02T07:45:59.273Z,36544.00
2018-07-02T07:46:59.341Z,36832.00
2018-07-02T07:47:59.425Z,37184.00
2018-07-02T07:48:59.509Z,35904.00
2018-07-02T07:49:59.589Z,34304.00
2018-07-02T07:50:59.681Z,33568.00
2018-07-02T07:51:59.764Z,32960.00
2018-07-02T07:52:59.837Z,33312.00
2018-07-02T07:53:59.921Z,33888.00
2018-07-02T07:55:00.008Z,33408.00
2018-07-02T07:56:00.102Z,32224.00
2018-07-02T07:57:00.172Z,31424.00
2018-07-02T07:58:00.250Z,32032.00
2018-07-02T07:59:00.335Z,31680.00
2018-07-02T08:00:00.423Z,31200.00
2018-07-02T08:01:00.506Z,31712.00
2018-07-02T08:02:00.590Z,32000.00
2018-07-02T08:03:00.662Z,31456.00
2018-07-02T08:04:00.748Z,29920.00
2018-07-02T08:05:00.841Z,30880.00
2018-07-02T08:06:00.915Z,31232.00
2018-07-02T08:07:00.998Z,31040.00
2018-07-02T08:08:01.074Z,29120.00
2018-07-02T08:09:01.156Z,28672.00
2018-07-02T08:10:01.239Z,29472.00
2018-07-02T08:11:01.335Z,29216.00
2018-07-02T08:12:01.403Z,28544.00
2018-07-02T08:13:01.482Z,28000.00
2018-07-02T08:14:01.563Z,27552.00
2018-07-02T08:15:01.658Z,27136.00
2018-07-02T08:16:01.759Z,26976.00
2018-07-02T08:17:01.831Z,26688.00
2018-07-02T08:18:01.898Z,26176.00
2018-07-02T08:19:02.065Z,25792.00
2018-07-02T08:20:02.059Z,25600.00
2018-07-02T08:21:02.367Z,25760.00
2018-07-02T08:22:02.219Z,25920.00
2018-07-02T08:23:02.303Z,25120.00
2018-07-02T08:24:02.399Z,24768.00
2018-07-02T08:25:02.471Z,24480.00
2018-07-02T08:26:02.599Z,24160.00
2018-07-02T08:27:02.667Z,24000.00
2018-07-02T08:28:02.712Z,23616.00
2018-07-02T08:29:02.794Z,23520.00
2018-07-02T08:30:02.880Z,23872.00
2018-07-02T08:31:02.963Z,22720.00
2018-07-02T08:32:03.059Z,19904.00
2018-07-02T08:33:03.159Z,16160.00
2018-07-02T08:34:03.199Z,14368.00
2018-07-02T08:35:03.287Z,13856.00
2018-07-02T08:36:03.395Z,13664.00
2018-07-02T08:37:03.443Z,13632.00
2018-07-02T08:38:03.523Z,13632.00
2018-07-02T08:39:03.605Z,13568.00
2018-07-02T08:40:03.688Z,13600.00
2018-07-02T08:41:03.775Z,13632.00
2018-07-02T08:42:03.856Z,13600.00
2018-07-02T08:43:03.931Z,13632.00
2018-07-02T08:44:04.012Z,13632.00
2018-07-02T08:45:04.092Z,13632.00
2018-07-02T08:46:04.276Z,13600.00
2018-07-02T08:47:04.252Z,13600.00
2018-07-02T08:48:04.332Z,13568.00
2018-07-02T08:49:04.412Z,13600.00
2018-07-02T08:50:04.492Z,13420.00
2018-07-02T08:51:04.580Z,13444.00
2018-07-02T08:52:04.660Z,13600.00
2018-07-02T08:53:04.735Z,13632.00
2018-07-02T08:54:04.812Z,13632.00
2018-07-02T08:55:04.897Z,13664.00
2018-07-02T08:56:04.982Z,13664.00
2018-07-02T08:57:05.060Z,13728.00
2018-07-02T08:58:05.136Z,13696.00
2018-07-02T08:59:05.220Z,13696.00
2018-07-02T09:00:05.297Z,13728.00
2018-07-02T09:01:05.375Z,13440.00
2018-07-02T09:02:05.480Z,13568.00
2018-07-02T09:03:05.532Z,13600.00
2018-07-02T09:04:05.612Z,13600.00
2018-07-02T09:05:05.692Z,13632.00
2018-07-02T09:06:05.772Z,13424.00
2018-07-02T09:07:05.860Z,13368.00
2018-07-02T09:08:05.936Z,13368.00
2018-07-02T09:09:06.012Z,13272.00
2018-07-02T09:10:06.089Z,13240.00
2018-07-02T09:11:06.168Z,13204.00
2018-07-02T09:12:06.253Z,13216.00
2018-07-02T09:13:06.345Z,13160.00
2018-07-02T09:14:06.404Z,13120.00
2018-07-02T09:15:06.486Z,13108.00
2018-07-02T09:16:06.565Z,13156.00
2018-07-02T09:17:06.644Z,13140.00
2018-07-02T09:18:06.733Z,13068.00
2018-07-02T09:19:06.805Z,12988.00
2018-07-02T09:20:06.881Z,12952.00
2018-07-02T09:21:06.957Z,12860.00
2018-07-02T09:22:07.041Z,12764.00
2018-07-02T09:23:07.453Z,12688.00
2018-07-02T09:24:07.192Z,12552.00
2018-07-02T09:25:07.273Z,12532.00
2018-07-02T09:26:07.349Z,12404.00
2018-07-02T09:27:07.429Z,12392.00
2018-07-02T09:28:07.513Z,12404.00
2018-07-02T09:29:07.590Z,12320.00
2018-07-02T09:30:07.663Z,12248.00
2018-07-02T09:31:07.741Z,12132.00
2018-07-02T09:32:07.817Z,12128.00
2018-07-02T09:33:07.906Z,12040.00
2018-07-02T09:34:07.985Z,12024.00
2018-07-02T09:35:08.049Z,11916.00
2018-07-02T09:36:08.129Z,11852.00
2018-07-02T09:37:08.211Z,11764.00
2018-07-02T09:38:08.305Z,11676.00
2018-07-02T09:39:08.379Z,11584.00
2018-07-02T09:40:08.441Z,11488.00
2018-07-02T09:41:08.521Z,11360.00
2018-07-02T09:42:08.594Z,11264.00
2018-07-02T09:43:08.688Z,11144.00
2018-07-02T09:44:08.764Z,11056.00
2018-07-02T09:45:08.826Z,10904.00
2018-07-02T09:46:08.906Z,10864.00
2018-07-02T09:47:08.986Z,10716.00
2018-07-02T09:48:09.067Z,10548.00
2018-07-02T09:49:09.144Z,10412.00
2018-07-02T09:50:09.213Z,10300.00
2018-07-02T09:51:09.290Z,10200.00
2018-07-02T09:52:09.369Z,10140.00
2018-07-02T09:53:09.454Z,9996.00
2018-07-02T09:54:09.530Z,9904.00
2018-07-02T09:55:09.598Z,9872.00
2018-07-02T09:56:09.674Z,9768.00
2018-07-02T09:57:09.754Z,9660.00
2018-07-02T09:58:09.838Z,9528.00
2018-07-02T09:59:09.918Z,9440.00
2018-07-02T10:00:09.982Z,9288.00
2018-07-02T10:01:10.063Z,9232.00
2018-07-02T10:02:10.135Z,9092.00
2018-07-02T10:03:10.370Z,8960.00
2018-07-02T10:04:10.290Z,8872.00
2018-07-02T10:05:10.366Z,8780.00
2018-07-02T10:06:10.439Z,8704.00
2018-07-02T10:07:10.519Z,8624.00
2018-07-02T10:08:10.606Z,8544.00
2018-07-02T10:09:10.675Z,8432.00
2018-07-02T10:10:10.766Z,8348.00
2018-07-02T10:11:10.826Z,8236.00
2018-07-02T10:12:10.898Z,8156.00
2018-07-02T10:13:10.980Z,8056.00
2018-07-02T10:14:11.059Z,7996.00
2018-07-02T10:15:11.122Z,7904.00
2018-07-02T10:16:11.198Z,7816.00
2018-07-02T10:17:11.275Z,7724.00
2018-07-02T10:18:11.455Z,7652.00
2018-07-02T10:19:11.426Z,7568.00
2018-07-02T10:20:11.505Z,7488.00
2018-07-02T10:21:11.575Z,7420.00
2018-07-02T10:22:11.655Z,7376.00
2018-07-02T10:23:11.738Z,7300.00
2018-07-02T10:24:11.815Z,7216.00
2018-07-02T10:25:11.875Z,7104.00
2018-07-02T10:26:11.951Z,7032.00
2018-07-02T10:27:12.038Z,6968.00
2018-07-02T10:28:12.123Z,6896.00
2018-07-02T10:29:12.204Z,6844.00
2018-07-02T10:30:12.251Z,6776.00
2018-07-02T10:31:12.397Z,6736.00
2018-07-02T10:32:12.399Z,6696.00
2018-07-02T10:33:12.484Z,6672.00
2018-07-02T10:34:12.562Z,6608.00
2018-07-02T10:35:12.623Z,6588.00
2018-07-02T10:36:12.699Z,6572.00
2018-07-02T10:37:12.775Z,6520.00
2018-07-02T10:38:12.855Z,6484.00
2018-07-02T10:39:12.927Z,6460.00
2018-07-02T10:40:12.999Z,6432.00
2018-07-02T10:41:13.070Z,6380.00
2018-07-02T10:42:13.148Z,6384.00
2018-07-02T10:43:13.235Z,6352.00
2018-07-02T10:44:13.294Z,6336.00
2018-07-02T10:45:13.371Z,6300.00
2018-07-02T10:46:13.443Z,6276.00
2018-07-02T10:47:13.519Z,6240.00
2018-07-02T10:48:13.599Z,6200.00
2018-07-02T10:49:13.675Z,6152.00
2018-07-02T10:50:13.745Z,6104.00
2018-07-02T10:51:13.815Z,6048.00
2018-07-02T10:52:13.887Z,5980.00
2018-07-02T10:53:13.977Z,5936.00
2018-07-02T10:54:14.050Z,5848.00
2018-07-02T10:55:14.112Z,5760.00
2018-07-02T10:56:14.184Z,5680.00
2018-07-02T10:57:14.259Z,5624.00
2018-07-02T10:58:14.347Z,5592.00
2018-07-02T10:59:14.411Z,5564.00
2018-07-02T11:00:14.480Z,5528.00
2018-07-02T11:01:14.558Z,5516.00
2018-07-02T11:02:14.628Z,5472.00
2018-07-02T11:03:14.708Z,5452.00
2018-07-02T11:04:14.780Z,5408.00
2018-07-02T11:05:14.853Z,5388.00
2018-07-02T11:06:14.920Z,5364.00
2018-07-02T11:07:14.996Z,5344.00
2018-07-02T11:08:15.180Z,5336.00
2018-07-02T11:09:15.140Z,5332.00
2018-07-02T11:10:15.216Z,5312.00
2018-07-02T11:11:15.324Z,5304.00
2018-07-02T11:12:15.360Z,5280.00
2018-07-02T11:13:15.446Z,5288.00
2018-07-02T11:14:15.513Z,5280.00
2018-07-02T11:15:15.589Z,5288.00
2018-07-02T11:16:15.658Z,5288.00
2018-07-02T11:17:15.731Z,5292.00
2018-07-02T11:18:15.808Z,5296.00
2018-07-02T11:19:15.886Z,5292.00
2018-07-02T11:20:15.949Z,5300.00
2018-07-02T11:21:16.024Z,5300.00
2018-07-02T11:22:16.093Z,5296.00
2018-07-02T11:23:16.277Z,5308.00
2018-07-02T11:24:16.241Z,5296.00
2018-07-02T11:25:16.318Z,5300.00
2018-07-02T11:26:16.385Z,5292.00
2018-07-02T11:27:16.461Z,5308.00
2018-07-02T11:28:16.541Z,5324.00
2018-07-02T11:29:16.613Z,5308.00
2018-07-02T11:30:16.677Z,5316.00
2018-07-02T11:31:16.759Z,5332.00
2018-07-02T11:32:16.830Z,5344.00
2018-07-02T11:33:16.905Z,5372.00
2018-07-02T11:34:16.978Z,5336.00
2018-07-02T11:35:17.045Z,5332.00
2018-07-02T11:36:17.119Z,5336.00
2018-07-02T11:37:17.190Z,5340.00
2018-07-02T11:38:17.377Z,5340.00
2018-07-02T11:39:17.338Z,5336.00
2018-07-02T11:40:17.415Z,5344.00
2018-07-02T11:41:17.491Z,5356.00
2018-07-02T11:42:17.554Z,5364.00
2018-07-02T11:43:17.633Z,5356.00
2018-07-02T11:44:17.715Z,5364.00
2018-07-02T11:45:17.774Z,5356.00
2018-07-02T11:46:17.875Z,5368.00
2018-07-02T11:47:17.923Z,5372.00
2018-07-02T11:48:18.003Z,5368.00
2018-07-02T11:49:18.074Z,5372.00
2018-07-02T11:50:18.139Z,5364.00
2018-07-02T11:51:18.219Z,5372.00
2018-07-02T11:52:18.290Z,5372.00
2018-07-02T11:53:18.368Z,5368.00
2018-07-02T11:54:18.439Z,5368.00
2018-07-02T11:55:18.504Z,5380.00
2018-07-02T11:56:18.581Z,5384.00
2018-07-02T11:57:18.652Z,5380.00
2018-07-02T11:58:18.732Z,5388.00
2018-07-02T11:59:18.804Z,5400.00
2018-07-02T12:00:18.872Z,5400.00
2018-07-02T12:01:18.944Z,5396.00
2018-07-02T12:02:19.016Z,5392.00
2018-07-02T12:03:19.240Z,5400.00
2018-07-02T12:04:19.182Z,5412.00
2018-07-02T12:05:19.237Z,5408.00
2018-07-02T12:06:19.312Z,5412.00
2018-07-02T12:07:19.384Z,5420.00
2018-07-02T12:08:19.461Z,5416.00
2018-07-02T12:09:19.537Z,5420.00
2018-07-02T12:10:19.601Z,5408.00
2018-07-02T12:11:19.673Z,5424.00
2018-07-02T12:12:19.745Z,5408.00
2018-07-02T12:13:19.825Z,5420.00
2018-07-02T12:14:19.897Z,5432.00
2018-07-02T12:15:20.008Z,5420.00
2018-07-02T12:16:20.037Z,5416.00
2018-07-02T12:17:20.114Z,5420.00
2018-07-02T12:18:20.200Z,5424.00
2018-07-02T12:19:20.259Z,5432.00
2018-07-02T12:20:20.334Z,5436.00